Aviation Digital Data Service (ADDS)

Output produced by METARs form (1906 UTC 23 January 2019)
found at http://aviationweather.gov/metar/data/
 
KSHV 231739Z 2318/2418 32015G25KT P6SM OVC025 
     FM231900 31015G25KT P6SM BKN025 
     FM240000 31010KT P6SM SKC 
     FM240400 VRB03KT P6SM SKC